Time;durP1;ratioP1;P1;durP2;ratioP2;P2;SDS_P1;SDS_P2;PMS_P1;PMS_P2;Temp;Humidity;BMP_temperature;BMP_pressure;BME280_temperature;BME280_humidity;BME280_pressure;Samples;Min_cycle;Max_cycle;Signal;HPM_P1;HPM_P2
2024/02/26 00:01:21;;;;;;;3.72;2.95;;;10.00;64.10;11.60;99752.00;;;;4997712;28;20309;-78
2024/02/26 00:03:48;;;;;;;4.18;3.15;;;9.90;64.00;11.60;99762.00;;;;5011162;28;20291;-77
2024/02/26 00:06:16;;;;;;;4.28;3.05;;;9.90;64.00;11.60;99762.00;;;;5005095;28;20252;-78
2024/02/26 00:08:43;;;;;;;3.60;3.30;;;9.90;64.00;11.60;99761.00;;;;4993314;28;20671;-77
2024/02/26 00:11:11;;;;;;;3.28;2.90;;;9.90;64.00;11.60;99761.00;;;;4993921;28;20289;-77
2024/02/26 00:13:38;;;;;;;3.80;2.88;;;9.90;64.00;11.60;99767.00;;;;4994489;28;20268;-78
2024/02/26 00:16:07;;;;;;;3.38;2.85;;;9.90;64.00;11.60;99763.00;;;;5001917;28;20292;-76
2024/02/26 00:18:34;;;;;;;3.60;2.90;;;9.90;64.00;11.60;99761.00;;;;4996470;28;20241;-76
2024/02/26 00:21:01;;;;;;;5.05;3.15;;;9.90;64.00;11.50;99769.00;;;;4995378;28;20356;-77
2024/02/26 00:23:28;;;;;;;3.75;2.80;;;9.90;64.00;11.50;99761.00;;;;5007666;28;20205;-78
2024/02/26 00:25:55;;;;;;;3.15;2.85;;;9.90;64.10;11.60;99763.00;;;;4994524;28;20194;-78
2024/02/26 00:28:24;;;;;;;7.57;3.13;;;9.90;64.10;11.50;99761.00;;;;5022218;28;20283;-78
2024/02/26 00:30:55;;;;;;;4.15;3.22;;;9.90;64.10;11.50;99772.00;;;;5000687;28;20229;-77
2024/02/26 00:33:23;;;;;;;4.00;3.30;;;9.90;64.00;11.50;99765.00;;;;5002975;28;20239;-78
2024/02/26 00:35:50;;;;;;;4.13;3.20;;;9.80;64.00;11.50;99762.00;;;;5001595;28;20647;-78
2024/02/26 00:38:18;;;;;;;3.33;2.88;;;9.80;64.00;11.50;99768.00;;;;4993727;28;20276;-80
2024/02/26 00:40:45;;;;;;;3.60;3.20;;;9.80;64.10;11.50;99762.00;;;;4992436;28;20285;-79
2024/02/26 00:43:12;;;;;;;3.33;2.85;;;9.80;64.10;11.50;99767.00;;;;5009321;28;20680;-77
2024/02/26 00:45:41;;;;;;;3.65;2.75;;;9.80;64.10;11.50;99770.00;;;;5012475;28;20698;-79
2024/02/26 00:48:08;;;;;;;3.25;2.63;;;9.80;64.10;11.50;99769.00;;;;5003486;28;20832;-77
2024/02/26 00:50:36;;;;;;;4.53;3.03;;;9.80;64.10;11.40;99762.00;;;;5002082;28;20255;-78
2024/02/26 00:53:03;;;;;;;2.58;2.17;;;9.80;64.10;11.40;99770.00;;;;4998103;28;20232;-77
2024/02/26 00:55:30;;;;;;;3.05;2.75;;;9.80;64.20;11.40;99771.00;;;;5009640;28;20202;-77
2024/02/26 00:57:57;;;;;;;3.70;2.92;;;9.70;64.20;11.40;99765.00;;;;5015528;28;20606;-79
2024/02/26 01:00:24;;;;;;;4.22;3.20;;;9.80;64.30;11.40;99768.00;;;;5008851;28;20224;-77
2024/02/26 01:02:53;;;;;;;3.30;3.00;;;9.80;64.40;11.40;99755.00;;;;4994521;28;20288;-79
2024/02/26 01:05:20;;;;;;;3.70;3.08;;;9.70;64.40;11.40;99757.00;;;;4992322;28;20229;-76
2024/02/26 01:07:47;;;;;;;3.50;3.17;;;9.70;64.40;11.40;99754.00;;;;4994841;28;20193;-78
2024/02/26 01:10:14;;;;;;;3.53;3.22;;;9.80;64.50;11.40;99751.00;;;;5005197;28;20922;-78
2024/02/26 01:12:41;;;;;;;3.42;3.13;;;9.70;64.40;11.40;99748.00;;;;5008448;28;20221;-78
2024/02/26 01:15:09;;;;;;;3.45;3.15;;;9.70;64.50;11.40;99747.00;;;;4998318;28;20248;-78
2024/02/26 01:17:36;;;;;;;3.30;3.00;;;9.80;64.60;11.40;99754.00;;;;4997277;28;20729;-78
2024/02/26 01:20:08;;;;;;;3.20;2.90;;;9.80;64.50;11.40;99757.00;;;;4991476;28;20208;-78
2024/02/26 01:22:35;;;;;;;3.30;3.00;;;9.70;64.40;11.40;99758.00;;;;5001221;28;20205;-76
2024/02/26 01:25:03;;;;;;;4.05;3.20;;;9.80;64.50;11.40;99750.00;;;;4996656;28;20288;-76
2024/02/26 01:27:30;;;;;;;3.55;3.10;;;9.80;64.50;11.40;99761.00;;;;4998803;28;20308;-77
2024/02/26 01:29:57;;;;;;;3.75;3.30;;;9.80;64.50;11.50;99761.00;;;;5020582;28;20201;-76
2024/02/26 01:32:24;;;;;;;3.67;3.03;;;9.80;64.50;11.50;99758.00;;;;5008843;28;20216;-76
2024/02/26 01:34:51;;;;;;;4.57;3.30;;;9.80;64.50;11.50;99754.00;;;;4992798;28;20201;-77
2024/02/26 01:37:20;;;;;;;3.50;3.20;;;9.80;64.50;11.50;99759.00;;;;4996108;28;20283;-78
2024/02/26 01:39:47;;;;;;;3.50;3.20;;;9.80;64.50;11.50;99754.00;;;;5003504;28;20660;-78
2024/02/26 01:42:14;;;;;;;3.53;3.10;;;9.80;64.40;11.40;99761.00;;;;4997573;28;20243;-77
2024/02/26 01:44:42;;;;;;;3.60;3.28;;;9.80;64.30;11.50;99759.00;;;;5002252;28;20667;-80
2024/02/26 01:47:12;;;;;;;3.55;3.25;;;9.80;64.30;11.40;99756.00;;;;5000446;28;20221;-78
2024/02/26 01:49:39;;;;;;;3.70;3.33;;;9.80;64.30;11.40;99761.00;;;;4999235;28;20279;-78
2024/02/26 01:52:09;;;;;;;3.60;3.20;;;9.80;64.30;11.40;99761.00;;;;5002901;28;20741;-78
2024/02/26 01:54:40;;;;;;;3.60;3.30;;;9.80;64.40;11.40;99765.00;;;;4996116;28;20277;-78
2024/02/26 01:57:09;;;;;;;3.45;3.15;;;9.80;64.40;11.50;99767.00;;;;4998588;28;20683;-77
2024/02/26 01:59:36;;;;;;;4.38;3.97;;;9.80;64.30;11.50;99774.00;;;;4992962;28;20294;-78
2024/02/26 02:02:09;;;;;;;3.38;3.08;;;9.80;64.30;11.50;99772.00;;;;5004576;28;20221;-77
2024/02/26 02:04:37;;;;;;;3.72;3.05;;;9.80;64.30;11.50;99772.00;;;;5005232;28;20194;-79
2024/02/26 02:07:08;;;;;;;3.30;3.00;;;9.80;64.20;11.50;99771.00;;;;4995436;28;20272;-77
2024/02/26 02:09:35;;;;;;;4.32;3.47;;;9.90;64.20;11.50;99773.00;;;;4998291;28;20244;-78
2024/02/26 02:12:05;;;;;;;3.72;3.42;;;9.80;64.10;11.50;99774.00;;;;4992051;28;20229;-77
2024/02/26 02:14:32;;;;;;;4.35;2.97;;;9.90;64.20;11.60;99785.00;;;;4999065;28;20280;-78
2024/02/26 02:16:59;;;;;;;4.13;3.65;;;9.90;64.20;11.60;99785.00;;;;4999961;28;20288;-78
2024/02/26 02:19:26;;;;;;;3.67;3.38;;;9.90;64.10;11.60;99793.00;;;;5006981;28;20289;-76
2024/02/26 02:21:55;;;;;;;4.25;3.55;;;9.90;64.10;11.60;99794.00;;;;5000478;28;20217;-78
2024/02/26 02:24:22;;;;;;;3.33;3.03;;;9.90;64.70;11.60;99793.00;;;;4995809;28;20300;-77
2024/02/26 02:26:49;;;;;;;4.63;3.50;;;9.90;64.00;11.60;99795.00;;;;4996068;28;20292;-79
2024/02/26 02:29:16;;;;;;;4.38;3.65;;;9.90;64.00;11.60;99809.00;;;;4994627;28;20198;-77
2024/02/26 02:31:44;;;;;;;4.82;4.15;;;9.90;64.00;11.60;99800.00;;;;4995284;28;20286;-77
2024/02/26 02:34:11;;;;;;;4.13;3.65;;;9.90;64.00;11.50;99806.00;;;;5005318;28;20307;-78
2024/02/26 02:36:50;;;;;;;4.95;3.92;;;9.90;64.00;11.50;99797.00;;;;5012434;28;20634;-77
2024/02/26 02:39:19;;;;;;;4.68;3.88;;;9.90;64.00;11.60;99802.00;;;;5008672;28;20196;-77
2024/02/26 02:41:46;;;;;;;4.80;4.10;;;9.90;64.00;11.60;99808.00;;;;5018360;28;20719;-77
2024/02/26 02:44:13;;;;;;;6.90;4.45;;;9.90;64.00;11.60;99820.00;;;;5013808;28;20193;-77
2024/02/26 02:46:40;;;;;;;3.88;3.45;;;9.90;64.00;11.60;99826.00;;;;5027273;28;20709;-76
2024/02/26 02:49:10;;;;;;;4.53;3.70;;;9.90;64.00;11.60;99827.00;;;;5013403;28;20284;-78
2024/02/26 02:51:37;;;;;;;4.60;3.78;;;10.00;64.00;11.60;99831.00;;;;5003306;28;20205;-77
2024/02/26 02:54:05;;;;;;;5.57;3.67;;;9.90;63.90;11.60;99835.00;;;;4996066;28;20326;-77
2024/02/26 02:56:33;;;;;;;4.55;3.90;;;9.90;64.00;11.60;99834.00;;;;4996350;28;20277;-75
2024/02/26 02:59:01;;;;;;;4.40;4.00;;;9.90;64.00;11.60;99842.00;;;;5007874;28;20208;-77
2024/02/26 03:01:28;;;;;;;5.15;4.50;;;9.90;64.00;11.60;99838.00;;;;5002993;28;20594;-77
2024/02/26 03:03:55;;;;;;;4.88;4.20;;;10.00;64.00;11.70;99830.00;;;;5005599;28;20376;-77
2024/02/26 03:06:22;;;;;;;4.15;3.72;;;10.00;64.00;11.70;99840.00;;;;5011995;28;20193;-77
2024/02/26 03:08:50;;;;;;;4.57;4.00;;;10.00;64.00;11.70;99845.00;;;;4995674;28;20209;-79
2024/02/26 03:11:17;;;;;;;4.55;4.00;;;10.00;64.00;11.70;99840.00;;;;5013437;28;20225;-77
2024/02/26 03:13:45;;;;;;;4.40;3.83;;;10.00;63.90;11.70;99841.00;;;;5009406;28;20311;-79
2024/02/26 03:16:12;;;;;;;4.82;4.13;;;10.00;63.90;11.70;99852.00;;;;4995848;28;20201;-78
2024/02/26 03:18:40;;;;;;;4.30;3.90;;;10.00;63.90;11.70;99855.00;;;;4993806;28;20260;-80
2024/02/26 03:21:07;;;;;;;5.53;4.18;;;10.00;63.90;11.70;99852.00;;;;4998852;28;20296;-80
2024/02/26 03:23:36;;;;;;;4.15;3.75;;;10.00;63.90;11.70;99854.00;;;;5012896;28;20638;-77
2024/02/26 03:26:04;;;;;;;5.32;4.15;;;10.00;63.90;11.70;99860.00;;;;5000753;28;20666;-80
2024/02/26 03:28:33;;;;;;;4.97;4.03;;;10.00;63.90;11.70;99859.00;;;;4994721;28;20198;-78
2024/02/26 03:31:02;;;;;;;4.07;3.60;;;10.00;63.90;11.60;99863.00;;;;5010947;28;20645;-79
2024/02/26 03:33:29;;;;;;;5.10;4.00;;;10.00;63.80;11.70;99863.00;;;;4993356;28;20218;-78
2024/02/26 03:35:56;;;;;;;4.38;3.72;;;10.00;63.90;11.70;99866.00;;;;4998137;28;20275;-78
2024/02/26 03:38:23;;;;;;;5.00;4.15;;;10.00;63.80;11.70;99864.00;;;;4994272;28;20280;-79
2024/02/26 03:40:50;;;;;;;4.50;3.90;;;10.00;63.70;11.70;99863.00;;;;5004019;28;20291;-78
2024/02/26 03:43:18;;;;;;;4.65;3.95;;;10.00;63.70;11.70;99869.00;;;;5004162;28;20698;-78
2024/02/26 03:45:45;;;;;;;5.05;3.80;;;10.00;63.80;11.60;99873.00;;;;4995841;28;20215;-79
2024/02/26 03:48:14;;;;;;;4.55;3.95;;;10.00;63.80;11.60;99871.00;;;;5010733;28;20291;-77
2024/02/26 03:50:41;;;;;;;4.90;3.80;;;10.00;63.80;11.60;99874.00;;;;4993096;28;20229;-77
2024/02/26 03:53:08;;;;;;;6.88;4.97;;;9.90;63.70;11.60;99866.00;;;;5014589;28;20228;-75
2024/02/26 03:55:36;;;;;;;4.82;4.32;;;9.90;63.70;11.60;99867.00;;;;5012446;28;20568;-77
2024/02/26 03:58:03;;;;;;;5.25;4.22;;;9.90;63.70;11.60;99859.00;;;;4995532;28;20285;-77
2024/02/26 04:00:30;;;;;;;5.28;4.20;;;9.90;63.80;11.60;99862.00;;;;5001208;28;20217;-78
2024/02/26 04:02:58;;;;;;;4.82;4.20;;;9.90;63.80;11.60;99866.00;;;;5012114;28;20280;-78
2024/02/26 04:05:26;;;;;;;5.95;4.55;;;9.90;63.80;11.60;99864.00;;;;4998645;28;20256;-77
2024/02/26 04:07:53;;;;;;;5.20;4.45;;;9.90;63.80;11.60;99864.00;;;;4994508;28;20292;-77
2024/02/26 04:10:20;;;;;;;5.55;4.40;;;9.90;63.80;11.60;99868.00;;;;4998012;28;20245;-75
2024/02/26 04:12:47;;;;;;;6.28;4.45;;;9.90;63.80;11.60;99865.00;;;;4993817;28;20260;-76
2024/02/26 04:15:14;;;;;;;4.82;4.28;;;9.90;63.70;11.60;99879.00;;;;4999770;28;20289;-76
2024/02/26 04:17:43;;;;;;;5.95;4.93;;;9.90;63.80;11.60;99885.00;;;;4996346;28;20306;-78
2024/02/26 04:20:16;;;;;;;5.65;4.60;;;9.90;64.50;11.50;99877.00;;;;4998675;28;20209;-78
2024/02/26 04:22:45;;;;;;;7.15;4.47;;;9.90;63.80;11.50;99886.00;;;;4997506;28;20205;-81
2024/02/26 04:25:13;;;;;;;5.78;4.55;;;9.90;63.80;11.60;99881.00;;;;4995453;28;20288;-78
2024/02/26 04:27:41;;;;;;;5.00;4.50;;;9.90;63.80;11.50;99881.00;;;;5005518;28;20212;-77
2024/02/26 04:30:09;;;;;;;6.88;5.20;;;9.80;63.80;11.50;99884.00;;;;4993716;28;20281;-78
2024/02/26 04:32:36;;;;;;;6.45;5.00;;;9.90;63.90;11.50;99885.00;;;;4998193;28;20352;-79
2024/02/26 04:35:04;;;;;;;5.57;4.80;;;9.90;63.90;11.50;99893.00;;;;4995380;28;20229;-78
2024/02/26 04:37:31;;;;;;;6.20;4.85;;;9.80;63.90;11.50;99893.00;;;;5006071;28;20198;-77
2024/02/26 04:40:02;;;;;;;6.35;5.07;;;9.80;63.90;11.50;99891.00;;;;5000797;28;20201;-80
2024/02/26 04:42:29;;;;;;;6.07;4.93;;;9.80;63.90;11.50;99899.00;;;;4996820;28;20200;-79
2024/02/26 04:44:56;;;;;;;7.55;5.55;;;9.80;63.90;11.50;99895.00;;;;4992675;28;20289;-80
2024/02/26 04:47:24;;;;;;;6.00;5.10;;;9.80;64.00;11.40;99902.00;;;;4993087;28;20280;-78
2024/02/26 04:49:52;;;;;;;5.63;4.78;;;9.80;64.00;11.40;99895.00;;;;4992747;28;20667;-81
2024/02/26 04:52:19;;;;;;;7.70;4.82;;;9.80;64.00;11.40;99897.00;;;;5011311;28;20262;-79
2024/02/26 04:54:46;;;;;;;6.90;5.47;;;9.80;64.00;11.40;99906.00;;;;5010749;28;20769;-79
2024/02/26 04:57:15;;;;;;;6.07;4.97;;;9.70;64.00;11.40;99903.00;;;;5012353;28;20192;-78
2024/02/26 04:59:42;;;;;;;5.35;4.05;;;9.70;64.00;11.40;99912.00;;;;5002524;28;20293;-78
2024/02/26 05:02:09;;;;;;;6.90;4.95;;;9.70;64.10;11.40;99906.00;;;;4998387;28;20212;-81
2024/02/26 05:04:36;;;;;;;6.40;4.70;;;9.80;64.20;11.40;99919.00;;;;5012415;28;20205;-81
2024/02/26 05:07:04;;;;;;;6.32;4.68;;;9.70;64.20;11.40;99920.00;;;;4997329;28;20205;-78
2024/02/26 05:09:32;;;;;;;6.10;4.63;;;9.70;64.20;11.40;99915.00;;;;4997275;28;20709;-78
2024/02/26 05:11:59;;;;;;;5.40;4.75;;;9.70;64.20;11.40;99920.00;;;;4997330;28;20298;-77
2024/02/26 05:14:28;;;;;;;6.65;4.82;;;9.70;64.20;11.40;99924.00;;;;4992070;28;20229;-79
2024/02/26 05:16:55;;;;;;;5.63;4.53;;;9.70;64.30;11.40;99926.00;;;;4997401;28;20658;-78
2024/02/26 05:19:23;;;;;;;5.70;4.45;;;9.70;64.30;11.40;99922.00;;;;4996890;28;20194;-78
2024/02/26 05:21:50;;;;;;;6.40;4.72;;;9.70;64.40;11.40;99911.00;;;;5003035;28;20207;-78
2024/02/26 05:24:18;;;;;;;7.97;4.80;;;9.70;64.40;11.40;99918.00;;;;5010452;28;20288;-83
2024/02/26 05:26:46;;;;;;;5.35;4.60;;;9.70;64.40;11.30;99920.00;;;;4997447;28;20256;-79
2024/02/26 05:29:13;;;;;;;4.80;4.05;;;9.70;64.30;11.40;99922.00;;;;4993751;28;20288;-82
2024/02/26 05:31:43;;;;;;;5.38;4.43;;;9.70;64.30;11.30;99918.00;;;;4991900;28;20297;-79
2024/02/26 05:34:10;;;;;;;6.45;4.25;;;9.70;64.30;11.40;99922.00;;;;4993169;28;20279;-81
2024/02/26 05:36:38;;;;;;;4.72;4.22;;;9.70;64.30;11.40;99929.00;;;;5000559;28;20629;-81
2024/02/26 05:39:05;;;;;;;5.00;3.97;;;9.70;64.30;11.30;99932.00;;;;4998756;28;20207;-80
2024/02/26 05:41:33;;;;;;;5.75;4.28;;;9.70;64.30;11.30;99928.00;;;;4995253;28;20201;-78
2024/02/26 05:44:00;;;;;;;5.47;3.83;;;9.70;64.30;11.30;99938.00;;;;4996962;28;20200;-78
2024/02/26 05:46:27;;;;;;;6.00;4.63;;;9.70;64.30;11.30;99939.00;;;;4997247;28;20233;-78
2024/02/26 05:48:56;;;;;;;4.93;4.18;;;9.70;64.40;11.30;99939.00;;;;5007033;28;20268;-79
2024/02/26 05:51:23;;;;;;;4.82;4.32;;;9.70;64.40;11.40;99941.00;;;;4996201;28;20662;-80
2024/02/26 05:53:53;;;;;;;4.38;3.50;;;9.70;64.40;11.40;99941.00;;;;5000928;28;20221;-81
2024/02/26 05:56:21;;;;;;;5.00;4.18;;;9.70;64.50;11.40;99954.00;;;;4992971;28;20194;-77
2024/02/26 05:58:49;;;;;;;6.78;4.97;;;9.70;64.40;11.40;99947.00;;;;5007308;28;20754;-78
2024/02/26 06:01:17;;;;;;;4.72;4.07;;;9.70;64.30;11.40;99948.00;;;;4997366;28;20217;-80
2024/02/26 06:03:45;;;;;;;5.13;4.50;;;9.70;64.30;11.40;99948.00;;;;4994530;28;20194;-78
2024/02/26 06:06:14;;;;;;;6.68;4.63;;;9.70;64.30;11.40;99944.00;;;;4994333;28;20461;-76
2024/02/26 06:08:42;;;;;;;6.25;4.38;;;9.70;64.30;11.40;99954.00;;;;4997473;28;20312;-77
2024/02/26 06:11:09;;;;;;;5.82;3.95;;;9.70;64.30;11.40;99956.00;;;;5006281;28;20301;-80
2024/02/26 06:13:36;;;;;;;5.80;4.38;;;9.70;65.00;11.40;99976.00;;;;5009009;28;20280;-83
2024/02/26 06:16:04;;;;;;;7.53;5.40;;;9.80;64.30;11.40;99966.00;;;;5010957;28;20283;-78
2024/02/26 06:18:31;;;;;;;6.60;4.75;;;9.80;64.20;11.40;99967.00;;;;5015292;28;20593;-80
2024/02/26 06:20:59;;;;;;;6.28;4.88;;;9.70;64.20;11.40;99970.00;;;;5017488;28;20289;-79
2024/02/26 06:23:28;;;;;;;5.32;4.60;;;9.80;64.30;11.40;99970.00;;;;5014447;28;20230;-79
2024/02/26 06:25:55;;;;;;;7.25;4.88;;;9.80;64.30;11.40;99976.00;;;;5002467;28;20293;-81
2024/02/26 06:28:22;;;;;;;6.43;5.20;;;9.70;64.30;11.40;99982.00;;;;4994225;28;20201;-80
2024/02/26 06:30:50;;;;;;;7.18;5.47;;;9.80;64.30;11.40;99986.00;;;;5000527;28;20288;-78
2024/02/26 06:33:17;;;;;;;6.20;4.55;;;9.80;64.20;11.40;99991.00;;;;4998154;28;20249;-80
2024/02/26 06:35:45;;;;;;;6.20;5.18;;;9.80;64.30;11.40;99986.00;;;;4996868;28;20307;-80
2024/02/26 06:38:13;;;;;;;7.80;5.50;;;9.80;64.30;11.50;99987.00;;;;4997111;28;20193;-77
2024/02/26 06:40:42;;;;;;;6.63;5.50;;;9.80;64.30;11.50;99991.00;;;;4997333;28;20239;-78
2024/02/26 06:43:09;;;;;;;8.35;6.10;;;9.80;64.30;11.40;100005.00;;;;4994968;28;20229;-81
2024/02/26 06:45:36;;;;;;;6.95;5.53;;;9.80;64.30;11.50;100004.00;;;;4992370;28;20281;-76
2024/02/26 06:48:03;;;;;;;6.93;4.95;;;9.80;64.20;11.50;100002.00;;;;4991419;28;20292;-77
2024/02/26 06:50:30;;;;;;;7.22;5.22;;;9.80;64.30;11.50;100011.00;;;;5001156;28;20285;-80
2024/02/26 06:52:58;;;;;;;7.25;5.90;;;9.80;64.40;11.50;100005.00;;;;4999631;28;20202;-79
2024/02/26 06:55:25;;;;;;;7.82;5.47;;;9.80;64.40;11.50;100012.00;;;;4999624;28;20587;-80
2024/02/26 06:57:53;;;;;;;7.45;5.57;;;9.80;64.30;11.50;100021.00;;;;5008005;28;20197;-76
2024/02/26 07:00:21;;;;;;;7.63;5.18;;;9.80;64.40;11.50;100017.00;;;;5000833;28;20201;-75
2024/02/26 07:02:48;;;;;;;9.73;6.32;;;9.80;64.30;11.50;100014.00;;;;5004737;28;20666;-75
2024/02/26 07:05:15;;;;;;;7.72;5.35;;;9.80;65.00;11.50;100026.00;;;;5002409;28;20194;-74
2024/02/26 07:07:42;;;;;;;8.40;6.07;;;9.80;64.30;11.50;100033.00;;;;4994167;28;20293;-75
2024/02/26 07:10:12;;;;;;;9.15;6.28;;;9.80;64.40;11.50;100029.00;;;;4998547;28;20225;-74
2024/02/26 07:12:39;;;;;;;8.00;5.80;;;9.80;64.30;11.50;100031.00;;;;4994250;28;20197;-75
2024/02/26 07:15:10;;;;;;;9.52;6.90;;;9.80;64.30;11.40;100042.00;;;;4999665;28;20288;-74
2024/02/26 07:17:37;;;;;;;9.15;6.18;;;9.80;64.30;11.40;100048.00;;;;4993433;28;20874;-74
2024/02/26 07:20:05;;;;;;;8.35;6.30;;;9.80;64.30;11.50;100043.00;;;;4994513;28;20572;-75
2024/02/26 07:22:33;;;;;;;9.93;6.68;;;9.80;64.40;11.40;100051.00;;;;4996353;28;20212;-75
2024/02/26 07:25:00;;;;;;;8.52;6.05;;;9.80;64.40;11.50;100050.00;;;;4994986;28;20568;-75
2024/02/26 07:27:27;;;;;;;8.48;5.82;;;9.80;64.40;11.50;100052.00;;;;4994508;28;20190;-75
2024/02/26 07:29:54;;;;;;;9.65;6.25;;;9.80;64.50;11.50;100056.00;;;;5006279;28;20291;-76
2024/02/26 07:32:23;;;;;;;8.25;6.15;;;9.80;64.50;11.50;100045.00;;;;4998998;28;20285;-75
2024/02/26 07:34:50;;;;;;;9.65;6.70;;;9.80;64.50;11.50;100050.00;;;;4995062;28;20221;-75
2024/02/26 07:37:17;;;;;;;11.20;7.75;;;9.80;64.50;11.50;100058.00;;;;5003323;28;20284;-75
2024/02/26 07:39:44;;;;;;;9.85;6.90;;;9.80;64.50;11.50;100065.00;;;;5001267;28;20201;-74
2024/02/26 07:42:11;;;;;;;14.50;7.60;;;9.80;64.50;11.50;100057.00;;;;5000975;28;20213;-76
2024/02/26 07:44:42;;;;;;;11.05;7.25;;;9.80;64.60;11.50;100078.00;;;;4994299;28;20288;-77
2024/02/26 07:47:08;;;;;;;12.15;7.57;;;9.90;64.70;11.50;100075.00;;;;4994305;28;20201;-76
2024/02/26 07:49:37;;;;;;;9.02;6.80;;;9.90;64.60;11.50;100069.00;;;;4994349;28;20741;-78
2024/02/26 07:52:05;;;;;;;9.52;6.68;;;9.90;64.70;11.50;100076.00;;;;4994808;28;20285;-75
2024/02/26 07:54:32;;;;;;;10.10;7.60;;;9.90;64.80;11.50;100075.00;;;;5005681;28;20312;-75
2024/02/26 07:56:59;;;;;;;10.65;7.50;;;9.90;64.80;11.50;100090.00;;;;5001739;28;20288;-77
2024/02/26 07:59:26;;;;;;;11.10;6.97;;;9.90;64.90;11.60;100089.00;;;;5000943;28;20640;-76
2024/02/26 08:01:56;;;;;;;9.98;7.55;;;9.90;64.90;11.60;100096.00;;;;5013947;28;20304;-76
2024/02/26 08:04:23;;;;;;;12.10;8.32;;;9.90;64.90;11.60;100084.00;;;;5004570;28;20676;-77
2024/02/26 08:06:52;;;;;;;11.82;8.23;;;9.90;64.80;11.60;100100.00;;;;4994420;28;20197;-75
2024/02/26 08:09:19;;;;;;;13.50;8.70;;;10.00;65.00;11.60;100105.00;;;;4994186;28;20281;-75
2024/02/26 08:11:47;;;;;;;13.68;8.98;;;10.00;65.00;11.60;100112.00;;;;5001840;28;20623;-76
2024/02/26 08:14:14;;;;;;;12.30;8.23;;;10.00;65.00;11.70;100115.00;;;;4999435;28;20285;-77
2024/02/26 08:16:41;;;;;;;11.40;7.78;;;10.00;65.00;11.70;100117.00;;;;4994285;28;20201;-76
2024/02/26 08:19:10;;;;;;;12.60;9.10;;;10.00;65.00;11.70;100123.00;;;;4993638;28;20229;-76
2024/02/26 08:21:37;;;;;;;13.50;9.25;;;10.00;65.10;11.70;100119.00;;;;4993342;28;20693;-77
2024/02/26 08:24:06;;;;;;;12.05;8.82;;;10.00;65.00;11.70;100129.00;;;;4994134;28;20201;-76
2024/02/26 08:26:34;;;;;;;13.85;9.10;;;10.00;65.40;11.70;100127.00;;;;4996285;28;20225;-76
2024/02/26 08:29:01;;;;;;;13.02;9.15;;;10.00;64.90;11.70;100127.00;;;;5013266;28;20292;-75
2024/02/26 08:31:28;;;;;;;12.35;8.10;;;10.10;65.10;11.80;100149.00;;;;4997109;28;20300;-77
2024/02/26 08:33:55;;;;;;;12.00;8.57;;;10.10;65.10;11.80;100129.00;;;;4993669;28;20663;-76
2024/02/26 08:36:22;;;;;;;13.32;9.32;;;10.10;65.10;11.80;100135.00;;;;4993254;28;20320;-75
2024/02/26 08:38:49;;;;;;;12.43;8.02;;;10.10;65.10;11.80;100144.00;;;;4993438;28;20288;-76
2024/02/26 08:41:18;;;;;;;12.00;8.00;;;10.10;65.10;11.80;100138.00;;;;5007222;28;20296;-75
2024/02/26 08:43:45;;;;;;;10.55;7.90;;;10.10;65.10;11.90;100143.00;;;;4997298;28;20655;-77
2024/02/26 08:46:14;;;;;;;14.30;9.45;;;10.20;65.20;11.90;100144.00;;;;4995226;28;21376;-75
2024/02/26 08:48:41;;;;;;;10.43;8.25;;;10.20;65.10;11.90;100148.00;;;;4999362;28;20304;-75
2024/02/26 08:51:10;;;;;;;9.90;7.45;;;10.20;65.00;11.90;100155.00;;;;5010534;28;20287;-77
2024/02/26 08:53:37;;;;;;;9.70;7.40;;;10.20;65.00;11.90;100156.00;;;;4999309;28;20276;-76
2024/02/26 08:56:05;;;;;;;10.63;7.47;;;10.20;65.00;11.90;100158.00;;;;5010983;28;20320;-75
2024/02/26 08:58:34;;;;;;;10.55;7.20;;;10.20;65.00;11.90;100157.00;;;;5001987;28;20679;-75
2024/02/26 09:01:01;;;;;;;10.95;7.55;;;10.20;65.00;11.90;100165.00;;;;4992938;28;20252;-75
2024/02/26 09:03:28;;;;;;;10.40;7.00;;;10.20;65.00;11.90;100168.00;;;;4994095;28;20682;-76
2024/02/26 09:05:57;;;;;;;9.65;7.25;;;10.20;64.90;11.90;100169.00;;;;5011622;28;20722;-76
2024/02/26 09:08:24;;;;;;;9.48;6.78;;;10.20;65.00;11.90;100173.00;;;;5012538;28;20211;-75
2024/02/26 09:10:51;;;;;;;8.13;6.38;;;10.20;64.90;11.90;100178.00;;;;5002587;28;20288;-76
2024/02/26 09:13:19;;;;;;;8.40;6.55;;;10.20;64.90;11.90;100170.00;;;;4993166;28;20718;-75
2024/02/26 09:15:47;;;;;;;8.20;6.63;;;10.20;64.80;11.90;100178.00;;;;4992755;28;20232;-76
2024/02/26 09:18:14;;;;;;;8.90;5.57;;;10.20;64.90;11.90;100183.00;;;;4992582;28;20315;-76
2024/02/26 09:20:42;;;;;;;7.32;6.10;;;10.20;64.80;11.90;100183.00;;;;4993652;28;20342;-76
2024/02/26 09:23:10;;;;;;;7.43;5.80;;;10.20;65.00;11.90;100186.00;;;;4993504;28;20210;-76
2024/02/26 09:25:38;;;;;;;7.63;5.45;;;10.20;65.00;11.90;100193.00;;;;4997171;28;20207;-76
2024/02/26 09:28:05;;;;;;;6.55;5.05;;;10.20;64.90;11.90;100199.00;;;;5012417;28;20299;-78
2024/02/26 09:30:33;;;;;;;6.55;5.38;;;10.20;65.00;11.80;100200.00;;;;5012149;28;20276;-76
2024/02/26 09:33:01;;;;;;;7.13;5.30;;;10.20;65.80;11.80;100199.00;;;;5011920;28;20291;-76
2024/02/26 09:35:29;;;;;;;6.95;4.82;;;10.10;65.00;11.80;100202.00;;;;5012143;28;20271;-76
2024/02/26 09:37:56;;;;;;;6.10;4.70;;;10.20;65.10;11.80;100204.00;;;;5008630;28;20205;-77
2024/02/26 09:40:23;;;;;;;5.25;4.50;;;10.10;65.10;11.90;100208.00;;;;4993147;28;20194;-76
2024/02/26 09:43:00;;;;;;;6.07;4.78;;;10.20;65.20;11.80;100213.00;;;;4992478;28;20300;-77
2024/02/26 09:45:29;;;;;;;7.32;5.25;;;10.20;65.30;11.80;100219.00;;;;5008148;28;20193;-77
2024/02/26 09:47:58;;;;;;;5.68;4.32;;;10.10;65.20;11.80;100219.00;;;;5012403;28;20311;-77
2024/02/26 09:50:26;;;;;;;6.07;4.57;;;10.10;65.20;11.80;100222.00;;;;5012367;28;20211;-77
2024/02/26 09:52:57;;;;;;;7.00;4.57;;;10.10;65.30;11.80;100225.00;;;;5012039;28;20197;-76
2024/02/26 09:55:24;;;;;;;6.47;4.40;;;10.10;65.40;11.80;100231.00;;;;4998943;28;20312;-77
2024/02/26 09:57:53;;;;;;;5.60;4.60;;;10.10;65.40;11.80;100224.00;;;;5002574;28;20212;-77
2024/02/26 10:00:22;;;;;;;8.98;4.22;;;10.10;65.50;11.80;100236.00;;;;4991577;28;20201;-75
2024/02/26 10:02:50;;;;;;;6.65;4.90;;;10.10;65.50;11.90;100241.00;;;;4992574;28;20201;-77
2024/02/26 10:05:19;;;;;;;5.00;4.10;;;10.10;65.60;11.80;100236.00;;;;4992355;28;20293;-76
2024/02/26 10:07:48;;;;;;;4.72;3.78;;;10.10;65.60;11.80;100240.00;;;;4992018;28;20194;-75
2024/02/26 10:10:16;;;;;;;5.97;4.25;;;10.10;65.60;11.90;100256.00;;;;4992186;28;20201;-75
2024/02/26 10:12:43;;;;;;;5.22;4.18;;;10.10;65.70;11.90;100252.00;;;;5001708;28;20240;-76
2024/02/26 10:15:10;;;;;;;6.00;4.50;;;10.20;65.80;11.90;100257.00;;;;5011070;28;20311;-77
2024/02/26 10:17:40;;;;;;;5.85;4.30;;;10.20;65.80;11.90;100261.00;;;;5011616;28;20311;-75
2024/02/26 10:20:17;;;;;;;5.18;3.63;;;10.20;65.80;11.80;100261.00;;;;5011536;28;20664;-75
2024/02/26 10:22:44;;;;;;;5.72;4.32;;;10.10;65.80;11.90;100267.00;;;;4992470;28;20561;-75
2024/02/26 10:25:13;;;;;;;4.78;3.75;;;10.20;66.00;11.90;100284.00;;;;4992285;28;20292;-75
2024/02/26 10:27:42;;;;;;;4.95;4.05;;;10.10;65.90;11.90;100281.00;;;;4992153;28;20292;-75
2024/02/26 10:30:19;;;;;;;6.05;4.57;;;10.20;66.00;11.80;100285.00;;;;5005411;28;20566;-75
2024/02/26 10:32:47;;;;;;;5.88;3.88;;;10.10;66.10;11.90;100293.00;;;;5011467;28;20205;-75
2024/02/26 10:35:15;;;;;;;7.03;4.15;;;10.20;66.00;11.90;100288.00;;;;5011660;28;20319;-75
2024/02/26 10:37:43;;;;;;;4.30;3.50;;;10.20;66.00;11.90;100291.00;;;;5011350;28;20192;-75
2024/02/26 10:40:14;;;;;;;5.15;4.28;;;10.10;66.00;11.90;100295.00;;;;5004522;28;20288;-75
2024/02/26 10:42:42;;;;;;;5.65;3.90;;;10.20;66.10;11.90;100302.00;;;;4993321;28;20753;-75
2024/02/26 10:45:11;;;;;;;4.45;3.80;;;10.20;66.10;11.90;100306.00;;;;5009542;28;20205;-75
2024/02/26 10:47:38;;;;;;;4.97;3.60;;;10.20;66.20;11.90;100313.00;;;;4998271;28;20769;-75
2024/02/26 10:50:07;;;;;;;5.10;3.70;;;10.20;66.20;11.90;100313.00;;;;4995788;28;20248;-75
2024/02/26 10:52:37;;;;;;;4.28;3.33;;;10.20;66.20;11.90;100321.00;;;;4995444;28;20289;-75
2024/02/26 10:55:07;;;;;;;4.60;3.38;;;10.20;66.30;12.00;100317.00;;;;5001995;28;20295;-75
2024/02/26 10:57:40;;;;;;;4.53;3.60;;;10.20;66.50;12.00;100320.00;;;;5000750;28;20686;-75